Portada
METAR-TAF:

METAR-TAF

Aeroports :

Francistown, Botswana

latitud: 21-13S, longitud: 027-30E, altitud: 1001 m

Observació

L'informe es va fer fa 8 hores i 36 minuts, a les 19:00 UTC
Vent 10 kt del Est
Temperatura 25°C
Humitat 21%
Pressió 1023 hPa
Visibilitat 10 km o més
sense núvols per sota de 1500 mi sense presència de cumulonimbus.

METAR: FBFT 191900Z 10010KT CAVOK 25/01 Q1023

Hora: 05:36 (03:36 UTC)

Pronòstic

L'informe es va fer fa 3 hores i 36 minuts, a les 00:00 UTC
Pronòstic vàlid del 20 a les 03 UTC al 20 a les 12 UTC
Vent 15 kt del Est amb ràfegues de 30 kt
Visibilitat 10 km o més
sense núvols per sota de 1500 mi sense presència de cumulonimbus.

TAF: FBFT 200000Z 2003/2012 09015G30KT CAVOK

Observacions i pronòstics meteorològics de més de 4000 aeroports (METAR i TAF).

Les estacions disponibles són els punts grocs i vermells al mapa.

Posi el ratolí al punt desitjat per veure el nom de l'estació.

Feu clic per veure les observacions i els pronòstics meteorològics.

Per canviar el mapa: feu clic els botons verds amb una creu de color negre per apropar; al botó verd amb un guió per allunyar la imatge; o en les fletxes verdes per a mapes adjacents.


METAR-TAF: